createdAt,value
2023-05-01T00:00:47.636Z,90
2023-05-01T00:20:50.156Z,91
2023-05-01T00:40:47.365Z,91
2023-05-01T01:00:47.337Z,91
2023-05-01T01:20:48.848Z,92
2023-05-01T01:40:46.604Z,91
2023-05-01T02:00:46.402Z,91
2023-05-01T02:20:48.633Z,91
2023-05-01T02:40:53.469Z,91
2023-05-01T03:00:49.907Z,91
2023-05-01T03:20:47.624Z,91
2023-05-01T03:40:48.321Z,91
2023-05-01T04:00:47.290Z,91
2023-05-01T04:20:46.423Z,91
2023-05-01T04:41:18.728Z,91
2023-05-01T05:01:08.324Z,92
2023-05-01T05:21:18.186Z,91
2023-05-01T05:41:06.967Z,91
2023-05-01T06:01:10.136Z,91
2023-05-01T06:21:15.423Z,90
2023-05-01T06:41:09.360Z,90
2023-05-01T07:01:17.839Z,89
2023-05-01T07:21:07.240Z,89
2023-05-01T07:41:07.283Z,90
2023-05-01T08:01:12.907Z,90
2023-05-01T08:21:08.052Z,91
2023-05-01T08:41:09.703Z,91
2023-05-01T09:01:18.287Z,90
2023-05-01T09:21:07.579Z,90
2023-05-01T09:41:08.276Z,91
2023-05-01T10:01:17.433Z,87
2023-05-01T10:21:12.576Z,89
2023-05-01T10:41:10.582Z,86
2023-05-01T11:01:09.092Z,87
2023-05-01T11:21:09.622Z,88
2023-05-01T11:41:09.585Z,84
2023-05-01T12:01:06.218Z,86
2023-05-01T12:21:16.705Z,88
2023-05-01T12:41:10.231Z,89
2023-05-01T13:01:11.966Z,88
2023-05-01T13:21:11.669Z,90
2023-05-01T13:41:14.314Z,90
2023-05-01T14:01:17.051Z,88
2023-05-01T14:21:16.307Z,89
2023-05-01T14:41:13.160Z,84
2023-05-01T15:01:16.638Z,78
2023-05-01T15:21:08.012Z,79
2023-05-01T15:41:07.142Z,78
2023-05-01T16:01:12.016Z,77
2023-05-01T16:21:10.138Z,84
2023-05-01T16:41:12.892Z,85
2023-05-01T17:01:09.140Z,86
2023-05-01T17:21:17.013Z,88
2023-05-01T17:41:07.973Z,88
2023-05-01T18:01:19.431Z,84
2023-05-01T18:21:07.370Z,85
2023-05-01T18:40:48.077Z,86
2023-05-01T19:00:46.223Z,86
2023-05-01T19:20:46.548Z,86
2023-05-01T19:40:47.818Z,89
2023-05-01T20:00:47.133Z,89
2023-05-01T20:20:47.293Z,89
2023-05-01T20:40:46.723Z,90
2023-05-01T21:00:47.277Z,90
2023-05-01T21:20:47.475Z,90
2023-05-01T21:40:47.227Z,90
2023-05-01T22:01:00.755Z,90
2023-05-01T22:20:48.636Z,90
2023-05-01T22:40:46.867Z,90
2023-05-01T23:00:46.697Z,91
2023-05-01T23:20:50.390Z,91
2023-05-01T23:40:50.506Z,91
